Time;durP1;ratioP1;P1;durP2;ratioP2;P2;SDS_P1;SDS_P2;PMS_P1;PMS_P2;Temp;Humidity;BMP_temperature;BMP_pressure;BME280_temperature;BME280_humidity;BME280_pressure;Samples;Min_cycle;Max_cycle;Signal;HPM_P1;HPM_P2
2022/05/21 00:00:01;;;;;;;11.50;3.08;;;;;;;;;;4985297;28;20046;-71
2022/05/21 00:02:27;;;;;;;8.98;2.75;;;;;;;;;;4982479;28;20109;-72
2022/05/21 00:04:53;;;;;;;5.85;2.33;;;;;;;;;;4984777;28;20464;-71
2022/05/21 00:07:19;;;;;;;13.35;2.85;;;;;;;;;;4985113;28;20109;-71
2022/05/21 00:09:45;;;;;;;12.95;2.80;;;;;;;;;;4982822;28;20022;-71
2022/05/21 00:12:11;;;;;;;8.35;2.53;;;;;;;;;;4983202;28;20373;-71
2022/05/21 00:14:37;;;;;;;7.95;3.00;;;;;;;;;;4987810;28;20058;-72
2022/05/21 00:17:04;;;;;;;9.05;2.97;;;;;;;;;;4985380;28;20111;-71
2022/05/21 00:19:30;;;;;;;9.15;2.50;;;;;;;;;;4979875;28;20038;-72
2022/05/21 00:21:56;;;;;;;6.32;2.10;;;;;;;;;;4982727;28;20035;-71
2022/05/21 00:24:22;;;;;;;7.60;1.83;;;;;;;;;;4971051;28;20045;-72
2022/05/21 00:26:48;;;;;;;6.03;1.98;;;;;;;;;;4981588;28;20186;-71
2022/05/21 00:29:14;;;;;;;11.60;3.72;;;;;;;;;;4977469;28;20141;-72
2022/05/21 00:31:40;;;;;;;12.00;3.40;;;;;;;;;;4982737;28;20042;-71
2022/05/21 00:34:06;;;;;;;10.65;3.50;;;;;;;;;;4982521;28;20399;-71
2022/05/21 00:36:32;;;;;;;11.43;3.00;;;;;;;;;;4980123;28;20106;-71
2022/05/21 00:38:58;;;;;;;11.40;3.65;;;;;;;;;;4982397;28;20385;-72
2022/05/21 00:41:24;;;;;;;10.45;4.43;;;;;;;;;;4984876;28;20034;-71
2022/05/21 00:43:55;;;;;;;10.95;3.80;;;;;;;;;;4983179;28;20464;-71
2022/05/21 00:46:22;;;;;;;9.80;4.05;;;;;;;;;;4982652;28;20513;-71
2022/05/21 00:49:18;;;;;;;13.90;3.50;;;;;;;;;;4981270;28;20062;-71
2022/05/21 00:51:55;;;;;;;11.80;4.07;;;;;;;;;;4977418;28;20076;-72
2022/05/21 00:54:29;;;;;;;13.07;4.20;;;;;;;;;;4985245;28;20077;-71
2022/05/21 00:56:58;;;;;;;11.32;4.07;;;;;;;;;;4984272;28;20041;-71
2022/05/21 01:02:10;;;;;;;12.93;3.55;;;;;;;;;;4984554;28;20053;-71
2022/05/21 01:04:37;;;;;;;11.77;3.00;;;;;;;;;;4979096;28;20034;-71
2022/05/21 01:07:04;;;;;;;9.68;2.85;;;;;;;;;;4979300;28;20046;-71
2022/05/21 01:09:31;;;;;;;11.77;3.13;;;;;;;;;;4978675;28;20526;-71
2022/05/21 01:11:57;;;;;;;10.88;2.67;;;;;;;;;;4984702;28;20030;-71
2022/05/21 01:14:23;;;;;;;10.13;2.72;;;;;;;;;;4980961;28;20030;-71
2022/05/21 01:16:50;;;;;;;12.13;2.47;;;;;;;;;;4983431;28;20034;-71
2022/05/21 01:19:16;;;;;;;12.65;2.47;;;;;;;;;;4978046;28;20039;-72
2022/05/21 01:21:43;;;;;;;15.82;2.30;;;;;;;;;;4981366;28;20045;-71
2022/05/21 01:24:10;;;;;;;9.40;2.38;;;;;;;;;;4982083;28;20488;-72
2022/05/21 01:26:37;;;;;;;6.03;1.88;;;;;;;;;;4982287;28;20031;-71
2022/05/21 01:29:05;;;;;;;9.13;2.10;;;;;;;;;;4984266;28;20029;-71
2022/05/21 01:31:34;;;;;;;7.65;2.15;;;;;;;;;;4980944;28;20464;-71
2022/05/21 01:34:00;;;;;;;8.40;2.20;;;;;;;;;;4983305;28;20198;-71
2022/05/21 01:36:26;;;;;;;9.52;2.85;;;;;;;;;;4983922;28;20030;-71
2022/05/21 01:38:52;;;;;;;8.77;2.40;;;;;;;;;;4985744;28;20045;-71
2022/05/21 01:41:18;;;;;;;7.75;2.25;;;;;;;;;;4981873;28;20512;-71
2022/05/21 01:46:30;;;;;;;7.47;2.53;;;;;;;;;;4979397;28;20093;-71
2022/05/21 01:48:56;;;;;;;10.27;2.90;;;;;;;;;;4979265;28;20038;-71
2022/05/21 01:51:22;;;;;;;8.18;2.60;;;;;;;;;;4980314;28;20030;-71
2022/05/21 01:53:48;;;;;;;8.95;2.63;;;;;;;;;;4982209;28;20068;-71
2022/05/21 01:56:15;;;;;;;6.60;2.40;;;;;;;;;;4980034;28;20084;-71
2022/05/21 01:58:41;;;;;;;9.05;2.60;;;;;;;;;;4981978;28;20097;-71
2022/05/21 02:01:08;;;;;;;11.52;3.05;;;;;;;;;;4970944;28;20073;-71
2022/05/21 02:03:34;;;;;;;9.10;2.10;;;;;;;;;;4980693;28;20169;-71
2022/05/21 02:06:00;;;;;;;9.18;2.35;;;;;;;;;;4981377;28;20879;-71
2022/05/21 02:08:26;;;;;;;11.13;2.72;;;;;;;;;;4981942;28;20049;-71
2022/05/21 02:10:52;;;;;;;7.47;2.67;;;;;;;;;;4974908;28;20026;-71
2022/05/21 02:13:21;;;;;;;8.50;3.05;;;;;;;;;;4981725;28;20113;-71
2022/05/21 02:15:46;;;;;;;6.68;2.03;;;;;;;;;;4982560;28;20475;-71
2022/05/21 02:18:13;;;;;;;10.95;2.78;;;;;;;;;;4977568;28;20057;-71
2022/05/21 02:20:40;;;;;;;8.30;2.33;;;;;;;;;;4980993;28;20038;-71
2022/05/21 02:23:06;;;;;;;6.28;2.30;;;;;;;;;;4996496;28;20129;-71
2022/05/21 02:25:32;;;;;;;8.50;2.38;;;;;;;;;;4979439;28;20030;-71
2022/05/21 02:27:58;;;;;;;7.55;1.98;;;;;;;;;;4981229;28;20167;-71
2022/05/21 02:30:25;;;;;;;7.10;2.00;;;;;;;;;;4978775;28;20034;-71
2022/05/21 02:32:51;;;;;;;8.20;2.17;;;;;;;;;;4978639;28;20113;-71
2022/05/21 02:35:17;;;;;;;7.38;2.15;;;;;;;;;;4974706;28;20460;-71
2022/05/21 02:40:28;;;;;;;8.60;2.10;;;;;;;;;;4981905;28;20773;-72
2022/05/21 02:42:55;;;;;;;14.65;3.10;;;;;;;;;;4983520;28;20353;-72
2022/05/21 02:45:25;;;;;;;6.63;2.05;;;;;;;;;;4980417;28;20034;-71
2022/05/21 02:47:53;;;;;;;6.70;2.33;;;;;;;;;;4982415;28;20754;-71
2022/05/21 02:50:20;;;;;;;11.73;2.55;;;;;;;;;;4988124;28;20181;-71
2022/05/21 02:52:47;;;;;;;8.02;2.88;;;;;;;;;;4982027;28;20718;-71
2022/05/21 02:55:13;;;;;;;8.65;2.42;;;;;;;;;;4986660;28;20030;-71
2022/05/21 02:57:40;;;;;;;9.25;2.53;;;;;;;;;;4979807;28;20042;-71
2022/05/21 03:00:10;;;;;;;9.65;2.78;;;;;;;;;;4986749;28;20030;-71
2022/05/21 03:02:36;;;;;;;7.88;1.88;;;;;;;;;;5002778;28;20080;-71
2022/05/21 03:05:03;;;;;;;6.88;2.33;;;;;;;;;;4986976;28;20113;-71
2022/05/21 03:07:30;;;;;;;8.55;2.10;;;;;;;;;;4982802;28;20050;-71
2022/05/21 03:12:40;;;;;;;4.55;2.22;;;;;;;;;;4980614;28;20084;-72
2022/05/21 03:15:07;;;;;;;9.00;2.42;;;;;;;;;;4982265;28;20464;-72
2022/05/21 03:17:33;;;;;;;11.10;2.25;;;;;;;;;;4986035;28;20843;-71
2022/05/21 03:19:59;;;;;;;10.07;2.85;;;;;;;;;;4986581;28;20030;-71
2022/05/21 03:22:25;;;;;;;7.95;2.20;;;;;;;;;;4987077;28;20834;-71
2022/05/21 03:24:51;;;;;;;7.07;2.10;;;;;;;;;;4988089;28;20050;-71
2022/05/21 03:27:17;;;;;;;8.38;2.28;;;;;;;;;;4985174;28;20039;-71
2022/05/21 03:29:43;;;;;;;10.43;2.15;;;;;;;;;;4990703;28;20026;-71
2022/05/21 03:32:09;;;;;;;7.93;2.13;;;;;;;;;;4990838;28;20053;-71
2022/05/21 03:34:36;;;;;;;10.75;2.42;;;;;;;;;;4987165;28;20741;-71
2022/05/21 03:37:02;;;;;;;10.05;2.30;;;;;;;;;;4988804;28;20084;-71
2022/05/21 03:39:28;;;;;;;7.38;2.28;;;;;;;;;;4985418;28;20031;-71
2022/05/21 03:41:54;;;;;;;8.30;2.30;;;;;;;;;;4986946;28;20026;-72
2022/05/21 03:44:21;;;;;;;14.35;2.20;;;;;;;;;;4982890;28;20042;-72
2022/05/21 03:46:47;;;;;;;9.95;2.60;;;;;;;;;;4987647;28;20062;-72
2022/05/21 03:49:13;;;;;;;15.73;2.83;;;;;;;;;;4986723;28;20058;-71
2022/05/21 03:51:39;;;;;;;11.60;2.75;;;;;;;;;;4980961;28;20511;-72
2022/05/21 03:54:05;;;;;;;8.88;3.28;;;;;;;;;;4976938;28;20604;-71
2022/05/21 03:56:31;;;;;;;5.97;2.95;;;;;;;;;;4985348;28;20376;-71
2022/05/21 03:58:57;;;;;;;11.18;3.15;;;;;;;;;;4982646;28;20535;-72
2022/05/21 04:01:23;;;;;;;6.95;2.70;;;;;;;;;;4981164;28;20057;-71
2022/05/21 04:03:50;;;;;;;8.80;2.78;;;;;;;;;;4983739;28;20031;-71
2022/05/21 04:06:17;;;;;;;5.50;2.50;;;;;;;;;;4985619;28;20054;-71
2022/05/21 04:08:43;;;;;;;14.13;3.20;;;;;;;;;;4983529;28;20043;-71
2022/05/21 04:11:09;;;;;;;8.75;2.47;;;;;;;;;;4982463;28;20045;-71
2022/05/21 04:13:35;;;;;;;9.82;2.50;;;;;;;;;;4980395;28;20089;-71
2022/05/21 04:16:01;;;;;;;7.10;2.35;;;;;;;;;;4982919;28;20761;-71
2022/05/21 04:18:27;;;;;;;9.27;2.67;;;;;;;;;;4982326;28;20043;-71
2022/05/21 04:20:53;;;;;;;11.32;3.35;;;;;;;;;;4983339;28;20505;-71
2022/05/21 04:23:19;;;;;;;11.57;2.92;;;;;;;;;;4978047;28;20045;-71
2022/05/21 04:25:46;;;;;;;6.55;2.13;;;;;;;;;;4988252;28;20034;-71
2022/05/21 04:28:12;;;;;;;9.57;3.17;;;;;;;;;;4985628;28;20061;-72
2022/05/21 04:30:39;;;;;;;13.55;2.60;;;;;;;;;;4984606;28;20034;-70
2022/05/21 04:33:05;;;;;;;8.88;2.92;;;;;;;;;;4985391;28;20044;-71
2022/05/21 04:38:17;;;;;;;7.85;3.42;;;;;;;;;;4981250;28;20119;-71
2022/05/21 04:40:43;;;;;;;9.70;3.45;;;;;;;;;;4983547;28;20073;-71
2022/05/21 04:43:09;;;;;;;6.93;2.95;;;;;;;;;;4976992;28;20053;-70
2022/05/21 04:45:36;;;;;;;8.13;2.90;;;;;;;;;;4983932;28;20132;-72
2022/05/21 04:48:06;;;;;;;7.57;3.25;;;;;;;;;;4978284;28;20042;-73
2022/05/21 04:50:34;;;;;;;10.70;3.35;;;;;;;;;;4983636;28;20534;-73
2022/05/21 04:53:00;;;;;;;9.85;2.58;;;;;;;;;;4978189;28;20038;-73
2022/05/21 04:55:26;;;;;;;11.40;2.90;;;;;;;;;;4983827;28;20045;-73
2022/05/21 04:57:52;;;;;;;8.98;3.42;;;;;;;;;;4984877;28;20046;-73
2022/05/21 05:00:18;;;;;;;9.65;2.88;;;;;;;;;;4982374;28;20435;-71
2022/05/21 05:02:45;;;;;;;9.30;3.05;;;;;;;;;;4976448;28;20042;-73
2022/05/21 05:05:11;;;;;;;6.93;2.35;;;;;;;;;;4980854;28;20038;-74
2022/05/21 05:07:38;;;;;;;8.25;2.10;;;;;;;;;;4983108;28;20835;-70
2022/05/21 05:10:05;;;;;;;9.93;3.20;;;;;;;;;;4985696;28;20058;-71
2022/05/21 05:12:32;;;;;;;8.75;2.33;;;;;;;;;;4981014;28;20516;-70
2022/05/21 05:14:58;;;;;;;7.25;2.42;;;;;;;;;;4976871;28;20042;-71
2022/05/21 05:17:24;;;;;;;8.65;2.88;;;;;;;;;;4980719;28;20042;-71
2022/05/21 05:19:50;;;;;;;12.65;2.85;;;;;;;;;;4977173;28;20490;-71
2022/05/21 05:22:17;;;;;;;8.90;3.25;;;;;;;;;;4979414;28;20046;-70
2022/05/21 05:24:43;;;;;;;9.82;3.30;;;;;;;;;;4983325;28;20035;-71
2022/05/21 05:27:09;;;;;;;7.22;3.70;;;;;;;;;;4985297;28;20480;-71
2022/05/21 05:29:35;;;;;;;13.98;3.72;;;;;;;;;;4975472;28;20061;-71
2022/05/21 05:32:01;;;;;;;18.90;4.07;;;;;;;;;;4980276;28;20038;-71
2022/05/21 05:34:27;;;;;;;11.13;3.30;;;;;;;;;;4982009;28;20030;-71
2022/05/21 05:36:53;;;;;;;6.78;3.15;;;;;;;;;;4974529;28;20042;-70
2022/05/21 05:39:20;;;;;;;14.02;5.78;;;;;;;;;;4981990;28;20104;-71
2022/05/21 05:41:46;;;;;;;12.20;5.55;;;;;;;;;;4983160;28;20030;-71
2022/05/21 05:44:12;;;;;;;7.82;3.83;;;;;;;;;;4981780;28;20097;-71
2022/05/21 05:46:38;;;;;;;11.18;2.72;;;;;;;;;;4982259;28;20092;-71
2022/05/21 05:49:04;;;;;;;12.82;3.58;;;;;;;;;;4984077;28;20129;-70
2022/05/21 05:51:30;;;;;;;8.98;3.13;;;;;;;;;;4980236;28;20061;-71
2022/05/21 05:53:56;;;;;;;10.98;3.55;;;;;;;;;;4985520;28;20033;-70
2022/05/21 05:56:22;;;;;;;9.10;2.63;;;;;;;;;;4980645;28;20042;-71
2022/05/21 06:01:33;;;;;;;9.15;2.22;;;;;;;;;;4974999;28;20479;-71
2022/05/21 06:03:59;;;;;;;12.25;2.75;;;;;;;;;;4977201;28;20035;-71
2022/05/21 06:06:25;;;;;;;7.45;2.53;;;;;;;;;;4981217;28;20058;-71
2022/05/21 06:08:51;;;;;;;8.63;2.17;;;;;;;;;;4982363;28;20046;-70
2022/05/21 06:11:17;;;;;;;9.65;2.38;;;;;;;;;;4981456;28;20038;-72
2022/05/21 06:13:44;;;;;;;8.82;2.80;;;;;;;;;;4980540;28;20034;-71
2022/05/21 06:16:10;;;;;;;8.65;2.72;;;;;;;;;;4979738;28;20383;-70
2022/05/21 06:18:36;;;;;;;8.48;2.33;;;;;;;;;;4982575;28;20030;-71
2022/05/21 06:21:06;;;;;;;13.43;2.65;;;;;;;;;;4981930;28;20026;-71
2022/05/21 06:23:33;;;;;;;9.50;2.25;;;;;;;;;;4984398;28;20038;-71
2022/05/21 06:26:00;;;;;;;9.70;2.83;;;;;;;;;;4989552;28;20041;-71
2022/05/21 06:28:26;;;;;;;5.85;2.35;;;;;;;;;;4984761;28;20061;-71
2022/05/21 06:30:52;;;;;;;5.40;2.10;;;;;;;;;;4987325;28;20089;-70
2022/05/21 06:33:20;;;;;;;9.90;2.22;;;;;;;;;;4982473;28;20030;-72
2022/05/21 06:35:49;;;;;;;6.03;2.83;;;;;;;;;;4982800;28;20044;-73
2022/05/21 06:38:16;;;;;;;7.72;2.17;;;;;;;;;;4983375;28;21090;-72
2022/05/21 06:40:42;;;;;;;7.82;2.13;;;;;;;;;;4981622;28;20368;-72
2022/05/21 06:43:08;;;;;;;7.50;2.50;;;;;;;;;;4982605;28;20038;-72
2022/05/21 06:45:35;;;;;;;10.23;2.63;;;;;;;;;;4981860;28;20035;-72
2022/05/21 06:48:07;;;;;;;11.23;2.25;;;;;;;;;;4980023;28;20038;-72
2022/05/21 06:50:34;;;;;;;10.05;2.40;;;;;;;;;;4980876;28;20068;-71
2022/05/21 06:53:01;;;;;;;7.30;2.92;;;;;;;;;;4978714;28;20034;-72
2022/05/21 06:55:27;;;;;;;6.63;2.42;;;;;;;;;;4985660;28;20072;-72
2022/05/21 06:57:53;;;;;;;8.00;2.30;;;;;;;;;;4983449;28;20034;-72
2022/05/21 07:00:23;;;;;;;11.30;3.47;;;;;;;;;;4981362;28;20049;-72
2022/05/21 07:02:55;;;;;;;7.20;2.50;;;;;;;;;;4982086;28;20039;-72
2022/05/21 07:08:17;;;;;;;7.70;2.72;;;;;;;;;;4979648;28;20511;-71
2022/05/21 07:10:43;;;;;;;9.23;2.58;;;;;;;;;;4983831;28;20073;-72
2022/05/21 07:13:09;;;;;;;7.78;2.30;;;;;;;;;;4984002;28;20798;-71
2022/05/21 07:15:35;;;;;;;7.75;2.50;;;;;;;;;;4982128;28;20038;-71
2022/05/21 07:18:03;;;;;;;5.85;2.50;;;;;;;;;;4989923;28;20049;-71
2022/05/21 07:20:29;;;;;;;11.10;2.65;;;;;;;;;;4987251;28;20145;-71
2022/05/21 07:22:56;;;;;;;13.65;2.90;;;;;;;;;;4985699;28;20037;-72
2022/05/21 07:25:23;;;;;;;6.60;2.35;;;;;;;;;;4983710;28;20395;-72
2022/05/21 07:27:50;;;;;;;6.90;2.53;;;;;;;;;;4981017;28;20050;-72
2022/05/21 07:30:16;;;;;;;6.97;2.05;;;;;;;;;;4983462;28;20913;-72
2022/05/21 07:32:44;;;;;;;12.25;2.60;;;;;;;;;;4984395;28;20034;-72
2022/05/21 07:35:11;;;;;;;9.98;2.10;;;;;;;;;;4984228;28;20501;-72
2022/05/21 07:37:37;;;;;;;8.05;2.63;;;;;;;;;;4986080;28;20031;-72
2022/05/21 07:40:04;;;;;;;6.45;2.30;;;;;;;;;;4985401;28;20049;-72
2022/05/21 07:42:30;;;;;;;9.57;2.35;;;;;;;;;;4979902;28;20088;-72
2022/05/21 07:45:00;;;;;;;9.73;2.63;;;;;;;;;;4984451;28;20085;-71
2022/05/21 07:47:26;;;;;;;8.77;2.20;;;;;;;;;;4984555;28;20778;-72
2022/05/21 07:49:56;;;;;;;10.95;2.83;;;;;;;;;;4988341;28;20026;-72
2022/05/21 07:52:22;;;;;;;8.07;2.35;;;;;;;;;;4983046;28;20026;-72
2022/05/21 07:54:48;;;;;;;7.70;2.65;;;;;;;;;;4986806;28;20172;-72
2022/05/21 07:57:14;;;;;;;7.57;2.35;;;;;;;;;;4985685;28;20478;-72
2022/05/21 07:59:40;;;;;;;10.20;3.15;;;;;;;;;;4984632;28;20076;-72
2022/05/21 08:02:08;;;;;;;10.88;2.50;;;;;;;;;;4989820;28;20038;-73
2022/05/21 08:04:36;;;;;;;7.80;2.35;;;;;;;;;;4989040;28;20046;-73
2022/05/21 08:07:02;;;;;;;14.23;2.70;;;;;;;;;;4984976;28;20046;-73
2022/05/21 08:09:28;;;;;;;9.73;2.38;;;;;;;;;;4984063;28;20359;-73
2022/05/21 08:11:54;;;;;;;14.10;2.40;;;;;;;;;;4986943;28;20026;-72
2022/05/21 08:14:21;;;;;;;13.30;2.67;;;;;;;;;;4988835;28;20085;-73
2022/05/21 08:16:48;;;;;;;11.57;2.42;;;;;;;;;;4987861;28;20026;-73
2022/05/21 08:19:14;;;;;;;12.27;2.70;;;;;;;;;;4987219;28;20069;-73
2022/05/21 08:21:40;;;;;;;8.98;2.90;;;;;;;;;;4979236;28;20364;-73
2022/05/21 08:26:57;;;;;;;5.85;2.20;;;;;;;;;;4986634;28;20061;-73
2022/05/21 08:29:28;;;;;;;9.95;2.20;;;;;;;;;;4985492;28;20160;-73
2022/05/21 08:31:54;;;;;;;7.30;2.17;;;;;;;;;;4987680;28;20740;-72
2022/05/21 08:34:21;;;;;;;9.32;2.58;;;;;;;;;;4988769;28;20031;-73
2022/05/21 08:36:47;;;;;;;11.93;2.38;;;;;;;;;;4987280;28;20026;-73
2022/05/21 08:39:14;;;;;;;8.32;2.35;;;;;;;;;;4982151;28;20129;-73
2022/05/21 08:41:45;;;;;;;8.70;2.63;;;;;;;;;;4991794;28;20065;-73
2022/05/21 08:44:28;;;;;;;9.17;2.37;;;;;;;;;;4988665;28;20042;-73
2022/05/21 08:47:02;;;;;;;12.43;2.20;;;;;;;;;;4989233;28;20055;-72
2022/05/21 08:49:47;;;;;;;9.32;3.15;;;;;;;;;;4995515;28;20828;-73
2022/05/21 08:52:34;;;;;;;10.55;2.70;;;;;;;;;;4984205;28;20121;-72
2022/05/21 08:55:01;;;;;;;11.80;2.88;;;;;;;;;;4988243;28;20080;-73
2022/05/21 08:57:42;;;;;;;6.72;2.65;;;;;;;;;;4986317;28;20034;-73
2022/05/21 09:00:10;;;;;;;9.68;2.50;;;;;;;;;;4983938;28;20034;-73
2022/05/21 09:02:37;;;;;;;15.80;2.53;;;;;;;;;;4984302;28;20499;-73
2022/05/21 09:05:04;;;;;;;8.35;2.50;;;;;;;;;;4986307;28;20073;-73
2022/05/21 09:07:38;;;;;;;14.27;3.08;;;;;;;;;;4980550;28;20057;-73
2022/05/21 09:10:08;;;;;;;7.45;1.98;;;;;;;;;;4981487;28;20105;-73
2022/05/21 09:12:46;;;;;;;11.48;2.15;;;;;;;;;;4991557;28;20041;-73
2022/05/21 09:16:54;;;;;;;6.35;2.65;;;;;;;;;;4986544;28;20096;-72
2022/05/21 09:18:05;;;;;;;12.57;2.85;;;;;;;;;;4986251;28;20718;-73
2022/05/21 09:20:34;;;;;;;9.93;2.30;;;;;;;;;;4984422;28;20038;-73
2022/05/21 09:23:02;;;;;;;7.10;2.22;;;;;;;;;;4988431;28;20361;-73
2022/05/21 09:25:28;;;;;;;8.45;2.38;;;;;;;;;;4989475;28;20428;-73
2022/05/21 09:28:14;;;;;;;13.38;2.55;;;;;;;;;;4985619;28;20035;-73
2022/05/21 09:30:41;;;;;;;7.68;2.63;;;;;;;;;;4979059;28;20043;-73
2022/05/21 09:33:23;;;;;;;13.23;3.00;;;;;;;;;;4976614;28;20182;-73
2022/05/21 09:35:53;;;;;;;7.15;2.47;;;;;;;;;;4982886;28;20026;-73
2022/05/21 09:38:30;;;;;;;7.60;2.28;;;;;;;;;;4990154;28;20038;-73
2022/05/21 09:41:04;;;;;;;10.52;2.10;;;;;;;;;;4985729;28;20121;-73
2022/05/21 09:46:21;;;;;;;8.35;2.50;;;;;;;;;;4985191;28;20054;-73
2022/05/21 09:48:49;;;;;;;6.35;2.45;;;;;;;;;;4984291;28;20112;-72
2022/05/21 09:51:35;;;;;;;6.97;2.10;;;;;;;;;;4986390;28;20689;-73
2022/05/21 09:54:18;;;;;;;7.30;2.00;;;;;;;;;;4984178;28;20061;-72
2022/05/21 09:56:54;;;;;;;9.02;2.70;;;;;;;;;;4983142;28;20030;-72
2022/05/21 09:59:22;;;;;;;6.78;2.13;;;;;;;;;;4984363;28;20034;-73
2022/05/21 10:01:57;;;;;;;9.02;2.72;;;;;;;;;;4985673;28;20038;-72
2022/05/21 10:04:41;;;;;;;9.35;2.00;;;;;;;;;;4988017;28;20474;-72
2022/05/21 10:07:13;;;;;;;6.25;1.92;;;;;;;;;;4985186;28;20057;-72
2022/05/21 10:12:34;;;;;;;6.45;2.10;;;;;;;;;;4983749;28;20081;-72
2022/05/21 10:15:03;;;;;;;7.80;2.13;;;;;;;;;;4977997;28;20030;-73
2022/05/21 10:17:33;;;;;;;9.05;2.17;;;;;;;;;;4981145;28;20974;-73
2022/05/21 10:20:13;;;;;;;7.50;2.20;;;;;;;;;;4987708;28;20034;-73
2022/05/21 10:22:48;;;;;;;7.88;2.08;;;;;;;;;;4983923;28;20054;-72
2022/05/21 10:25:16;;;;;;;11.00;2.25;;;;;;;;;;4983924;28;20034;-72
2022/05/21 10:27:51;;;;;;;7.75;2.40;;;;;;;;;;4989252;28;20034;-73
2022/05/21 10:30:20;;;;;;;8.38;2.40;;;;;;;;;;4983799;28;20026;-72
2022/05/21 10:32:55;;;;;;;10.82;2.83;;;;;;;;;;4986954;28;20476;-72
2022/05/21 10:35:40;;;;;;;7.95;2.28;;;;;;;;;;4983542;28;20149;-73
2022/05/21 10:38:10;;;;;;;14.07;2.78;;;;;;;;;;4983277;28;20038;-73
2022/05/21 10:41:02;;;;;;;8.20;2.72;;;;;;;;;;4985716;28;20042;-73
2022/05/21 10:43:31;;;;;;;10.27;2.40;;;;;;;;;;4981226;28;20591;-73
2022/05/21 10:45:57;;;;;;;9.63;2.55;;;;;;;;;;4980798;28;20058;-73
2022/05/21 10:48:26;;;;;;;14.95;2.72;;;;;;;;;;4984006;28;20149;-73
2022/05/21 10:50:54;;;;;;;11.63;2.78;;;;;;;;;;4988204;28;20038;-73
2022/05/21 10:53:27;;;;;;;9.48;2.50;;;;;;;;;;4982545;28;20051;-73
2022/05/21 10:55:56;;;;;;;8.25;2.15;;;;;;;;;;4983136;28;20026;-73
2022/05/21 10:58:25;;;;;;;8.85;2.15;;;;;;;;;;4985527;28;20289;-73
2022/05/21 11:01:07;;;;;;;6.80;1.98;;;;;;;;;;4980185;28;20129;-73
2022/05/21 11:03:33;;;;;;;;;;;;;;;;;;4984920;28;20044;-73
2022/05/21 11:06:06;;;;;;;9.25;2.42;;;;;;;;;;4983839;28;19921;-73
2022/05/21 11:09:02;;;;;;;10.50;2.38;;;;;;;;;;4985619;28;20081;-72
2022/05/21 11:11:28;;;;;;;8.25;2.33;;;;;;;;;;4964407;28;20050;-72
2022/05/21 11:14:13;;;;;;;13.27;2.58;;;;;;;;;;4993774;28;20026;-72
2022/05/21 11:16:39;;;;;;;17.85;2.65;;;;;;;;;;4987444;28;20034;-72
2022/05/21 11:19:14;;;;;;;10.45;2.50;;;;;;;;;;4992019;28;20042;-72
2022/05/21 11:21:45;;;;;;;6.15;1.98;;;;;;;;;;4988210;28;20086;-72
2022/05/21 11:24:31;;;;;;;7.93;2.28;;;;;;;;;;4977651;28;20351;-72
2022/05/21 11:27:02;;;;;;;7.35;2.15;;;;;;;;;;4989786;28;20030;-73
2022/05/21 11:29:28;;;;;;;7.63;1.88;;;;;;;;;;4993068;28;20072;-73
2022/05/21 11:37:39;;;;;;;11.25;2.10;;;;;;;;;;4987646;28;20775;-73
2022/05/21 11:40:07;;;;;;;7.88;1.80;;;;;;;;;;4992085;28;20045;-73
2022/05/21 11:42:34;;;;;;;6.65;1.88;;;;;;;;;;4988154;28;20423;-72
2022/05/21 11:45:09;;;;;;;7.15;2.22;;;;;;;;;;4988108;28;20575;-73
2022/05/21 11:47:49;;;;;;;10.13;2.00;;;;;;;;;;4987709;28;20444;-73
2022/05/21 11:50:17;;;;;;;8.73;1.80;;;;;;;;;;4990793;28;20041;-73
2022/05/21 11:52:54;;;;;;;7.07;2.00;;;;;;;;;;4989040;28;20525;-73
2022/05/21 11:55:20;;;;;;;11.55;1.63;;;;;;;;;;4989282;28;20088;-72
2022/05/21 11:57:46;;;;;;;11.90;2.97;;;;;;;;;;4987040;28;20483;-73
2022/05/21 12:00:33;;;;;;;6.68;2.20;;;;;;;;;;4990644;28;20038;-72
2022/05/21 12:03:05;;;;;;;9.60;2.20;;;;;;;;;;4977523;28;20053;-73
2022/05/21 12:05:34;;;;;;;8.82;1.83;;;;;;;;;;5004030;28;20073;-72
2022/05/21 12:08:19;;;;;;;9.57;1.98;;;;;;;;;;4989901;28;20089;-72
2022/05/21 12:10:56;;;;;;;7.95;2.13;;;;;;;;;;5001462;28;20161;-73
2022/05/21 12:13:42;;;;;;;9.95;2.40;;;;;;;;;;4983586;28;20034;-72
2022/05/21 12:16:16;;;;;;;9.57;2.17;;;;;;;;;;4986170;28;20088;-72
2022/05/21 12:18:48;;;;;;;14.82;2.80;;;;;;;;;;4986645;28;20822;-72
2022/05/21 12:21:30;;;;;;;14.25;2.60;;;;;;;;;;4986036;28;20076;-72
2022/05/21 12:23:59;;;;;;;10.27;2.28;;;;;;;;;;4987298;28;20045;-72
2022/05/21 12:26:30;;;;;;;11.65;2.30;;;;;;;;;;4986430;28;20034;-72
2022/05/21 12:28:56;;;;;;;16.55;2.05;;;;;;;;;;4987190;28;20026;-72
2022/05/21 12:31:26;;;;;;;8.95;2.00;;;;;;;;;;4986904;28;20525;-73
2022/05/21 12:34:06;;;;;;;8.07;1.90;;;;;;;;;;4985348;28;20033;-73
2022/05/21 12:36:47;;;;;;;6.60;1.88;;;;;;;;;;4988762;28;20045;-72
2022/05/21 12:39:15;;;;;;;8.65;2.35;;;;;;;;;;4986735;28;20034;-73
2022/05/21 12:41:43;;;;;;;5.95;1.77;;;;;;;;;;4986304;28;20034;-72
2022/05/21 12:44:11;;;;;;;9.23;1.73;;;;;;;;;;4986875;28;20042;-73
2022/05/21 12:46:39;;;;;;;11.20;2.10;;;;;;;;;;4989037;28;20073;-73
2022/05/21 12:49:10;;;;;;;9.07;2.03;;;;;;;;;;4978453;28;20069;-73
2022/05/21 12:51:46;;;;;;;6.63;1.85;;;;;;;;;;4984422;28;20037;-73
2022/05/21 12:54:26;;;;;;;12.40;2.17;;;;;;;;;;4981227;28;20495;-73
2022/05/21 12:56:53;;;;;;;7.88;2.20;;;;;;;;;;4986167;28;20436;-73
2022/05/21 12:59:19;;;;;;;7.78;2.28;;;;;;;;;;4982212;28;20134;-73
2022/05/21 13:01:56;;;;;;;10.00;2.30;;;;;;;;;;4986948;28;20109;-72
2022/05/21 13:04:28;;;;;;;10.00;2.00;;;;;;;;;;4978739;28;20034;-73
2022/05/21 13:06:58;;;;;;;10.60;1.90;;;;;;;;;;4985118;28;20129;-72
2022/05/21 13:09:24;;;;;;;13.00;2.00;;;;;;;;;;4982857;28;20038;-72
2022/05/21 13:11:50;;;;;;;9.15;1.90;;;;;;;;;;4982940;28;20778;-73
2022/05/21 13:14:23;;;;;;;9.77;1.77;;;;;;;;;;4988059;28;20108;-73
2022/05/21 13:16:54;;;;;;;14.45;2.58;;;;;;;;;;4984126;28;20062;-73
2022/05/21 13:19:28;;;;;;;10.45;2.78;;;;;;;;;;4983739;28;20486;-72
2022/05/21 13:22:19;;;;;;;10.90;2.33;;;;;;;;;;4983605;28;20040;-73
2022/05/21 13:24:53;;;;;;;13.32;2.30;;;;;;;;;;4987339;28;20053;-73
2022/05/21 13:27:21;;;;;;;8.68;2.05;;;;;;;;;;4984746;28;20034;-73
2022/05/21 13:29:48;;;;;;;11.13;2.70;;;;;;;;;;4984753;28;20031;-73
2022/05/21 13:32:17;;;;;;;10.10;3.10;;;;;;;;;;4983358;28;20034;-73
2022/05/21 13:34:43;;;;;;;11.07;2.38;;;;;;;;;;4985689;28;20027;-73
2022/05/21 13:37:09;;;;;;;9.15;2.20;;;;;;;;;;4985383;28;20117;-73
2022/05/21 13:39:36;;;;;;;6.70;1.95;;;;;;;;;;4986187;28;20985;-73
2022/05/21 13:42:09;;;;;;;7.65;2.45;;;;;;;;;;4977079;28;20027;-73
2022/05/21 13:44:36;;;;;;;15.85;2.75;;;;;;;;;;4985819;28;20038;-73
2022/05/21 13:47:04;;;;;;;8.95;2.30;;;;;;;;;;4984626;28;20054;-73
2022/05/21 13:49:33;;;;;;;11.00;2.28;;;;;;;;;;4987305;28;20030;-73
2022/05/21 13:51:59;;;;;;;6.60;1.90;;;;;;;;;;4985520;28;20456;-73
2022/05/21 13:54:28;;;;;;;13.00;2.55;;;;;;;;;;4982980;28;20030;-72
2022/05/21 13:57:07;;;;;;;9.90;2.13;;;;;;;;;;4986979;28;20025;-73
2022/05/21 13:59:33;;;;;;;10.80;2.15;;;;;;;;;;4986642;28;20030;-73
2022/05/21 14:02:14;;;;;;;7.68;2.17;;;;;;;;;;4980431;28;20088;-72
2022/05/21 14:04:41;;;;;;;12.32;2.10;;;;;;;;;;4983609;28;20087;-73
2022/05/21 14:07:22;;;;;;;11.13;2.05;;;;;;;;;;4985836;28;20137;-73
2022/05/21 14:09:49;;;;;;;10.07;1.92;;;;;;;;;;4986339;28;20030;-73
2022/05/21 14:12:31;;;;;;;14.57;2.13;;;;;;;;;;4983987;28;20114;-73
2022/05/21 14:14:58;;;;;;;17.80;2.22;;;;;;;;;;4985981;28;20033;-73
2022/05/21 14:17:37;;;;;;;10.13;2.17;;;;;;;;;;4988409;28;20076;-73
2022/05/21 14:20:12;;;;;;;24.70;3.30;;;;;;;;;;4982137;28;20376;-73
2022/05/21 14:22:38;;;;;;;21.20;3.47;;;;;;;;;;4982314;28;20042;-73
2022/05/21 14:25:17;;;;;;;19.77;4.15;;;;;;;;;;4982728;28;20041;-73
2022/05/21 14:27:56;;;;;;;10.70;3.10;;;;;;;;;;4983605;28;20491;-73
2022/05/21 14:30:30;;;;;;;17.38;3.80;;;;;;;;;;4984329;28;20117;-73
2022/05/21 14:32:56;;;;;;;17.95;2.78;;;;;;;;;;4989213;28;20061;-72
2022/05/21 14:35:22;;;;;;;10.75;3.08;;;;;;;;;;4985615;28;20034;-73
2022/05/21 14:37:49;;;;;;;10.30;3.38;;;;;;;;;;4984473;28;22126;-73
2022/05/21 14:40:16;;;;;;;10.88;3.20;;;;;;;;;;4987653;28;20066;-73
2022/05/21 14:42:43;;;;;;;15.73;3.50;;;;;;;;;;4987975;28;20977;-73
2022/05/21 14:45:14;;;;;;;9.07;2.80;;;;;;;;;;4984721;28;20038;-73
2022/05/21 14:47:52;;;;;;;13.05;2.88;;;;;;;;;;4985470;28;20093;-73
2022/05/21 14:53:10;;;;;;;6.90;2.00;;;;;;;;;;4989158;28;20061;-73
2022/05/21 14:55:37;;;;;;;10.52;2.50;;;;;;;;;;4984671;28;20073;-73
2022/05/21 14:58:03;;;;;;;12.48;2.80;;;;;;;;;;4985378;28;20035;-73
2022/05/21 15:00:30;;;;;;;11.30;2.10;;;;;;;;;;4984277;28;20054;-73
2022/05/21 15:02:56;;;;;;;10.63;2.25;;;;;;;;;;4978450;28;20039;-73
2022/05/21 15:05:23;;;;;;;11.57;2.35;;;;;;;;;;4984914;28;20104;-73
2022/05/21 15:07:50;;;;;;;13.63;2.67;;;;;;;;;;4985953;28;20084;-73
2022/05/21 15:10:18;;;;;;;9.55;2.15;;;;;;;;;;4986427;28;20034;-72
2022/05/21 15:12:44;;;;;;;10.52;2.47;;;;;;;;;;4979616;28;20066;-73
2022/05/21 15:15:11;;;;;;;8.40;2.28;;;;;;;;;;4990991;28;20510;-73
2022/05/21 15:17:37;;;;;;;9.57;2.33;;;;;;;;;;4986195;28;20061;-73
2022/05/21 15:20:06;;;;;;;8.52;2.03;;;;;;;;;;4983091;28;20034;-73
2022/05/21 15:22:34;;;;;;;12.45;2.33;;;;;;;;;;4983468;28;20130;-73
2022/05/21 15:25:02;;;;;;;11.30;2.47;;;;;;;;;;4987450;28;20026;-73